sensor_id;sensor_type;location;lat;lon;timestamp;pressure;altitude;pressure_sealevel;temperature;humidity
73671;BME280;61968;48.178;11.566;2023-07-20T00:01:29;95558.69;;;23.29;27.80
73671;BME280;61968;48.178;11.566;2023-07-20T00:03:55;95557.22;;;23.23;27.98
73671;BME280;61968;48.178;11.566;2023-07-20T00:06:22;95562.31;;;23.33;28.34
73671;BME280;61968;48.178;11.566;2023-07-20T00:08:50;95569.63;;;23.41;27.63
73671;BME280;61968;48.178;11.566;2023-07-20T00:11:18;95567.56;;;23.38;27.92
73671;BME280;61968;48.178;11.566;2023-07-20T00:13:44;95570.72;;;23.49;27.79
73671;BME280;61968;48.178;11.566;2023-07-20T00:16:11;95569.44;;;23.38;28.10
73671;BME280;61968;48.178;11.566;2023-07-20T00:18:37;95561.84;;;23.48;28.02
73671;BME280;61968;48.178;11.566;2023-07-20T00:21:04;95568.53;;;23.51;27.63
73671;BME280;61968;48.178;11.566;2023-07-20T00:23:30;95562.94;;;23.56;27.54
73671;BME280;61968;48.178;11.566;2023-07-20T00:25:57;95558.97;;;23.62;27.89
73671;BME280;61968;48.178;11.566;2023-07-20T00:28:25;95568.19;;;23.61;27.51
73671;BME280;61968;48.178;11.566;2023-07-20T00:30:51;95561.06;;;23.56;27.33
73671;BME280;61968;48.178;11.566;2023-07-20T00:33:18;95565.31;;;23.31;27.47
73671;BME280;61968;48.178;11.566;2023-07-20T00:35:45;95559.41;;;22.55;28.76
73671;BME280;61968;48.178;11.566;2023-07-20T00:38:11;95575.16;;;22.70;28.78
73671;BME280;61968;48.178;11.566;2023-07-20T00:40:38;95574.00;;;23.02;28.13
73671;BME280;61968;48.178;11.566;2023-07-20T00:43:05;95580.47;;;22.93;28.13
73671;BME280;61968;48.178;11.566;2023-07-20T00:45:34;95593.84;;;23.15;28.17
73671;BME280;61968;48.178;11.566;2023-07-20T00:48:01;95582.09;;;23.02;28.55
73671;BME280;61968;48.178;11.566;2023-07-20T00:50:28;95571.94;;;23.08;27.88
73671;BME280;61968;48.178;11.566;2023-07-20T00:52:55;95579.44;;;23.28;27.91
73671;BME280;61968;48.178;11.566;2023-07-20T00:55:23;95581.34;;;23.28;27.71
73671;BME280;61968;48.178;11.566;2023-07-20T00:57:50;95574.06;;;23.37;28.13
73671;BME280;61968;48.178;11.566;2023-07-20T01:00:17;95580.56;;;23.27;27.93
73671;BME280;61968;48.178;11.566;2023-07-20T01:02:45;95577.56;;;23.29;27.80
73671;BME280;61968;48.178;11.566;2023-07-20T01:05:13;95576.94;;;23.32;28.33
73671;BME280;61968;48.178;11.566;2023-07-20T01:07:46;95578.03;;;23.31;27.95
73671;BME280;61968;48.178;11.566;2023-07-20T01:10:20;95578.81;;;23.40;27.92
73671;BME280;61968;48.178;11.566;2023-07-20T01:12:52;95577.25;;;23.39;27.77
73671;BME280;61968;48.178;11.566;2023-07-20T01:15:20;95578.50;;;23.33;28.06
73671;BME280;61968;48.178;11.566;2023-07-20T01:17:48;95573.59;;;23.35;27.79
73671;BME280;61968;48.178;11.566;2023-07-20T01:20:16;95571.19;;;23.25;27.85
73671;BME280;61968;48.178;11.566;2023-07-20T01:23:02;95582.97;;;23.29;28.49
73671;BME280;61968;48.178;11.566;2023-07-20T01:25:58;95565.78;;;23.25;28.01
73671;BME280;61968;48.178;11.566;2023-07-20T01:28:48;95567.56;;;23.29;28.21
73671;BME280;61968;48.178;11.566;2023-07-20T01:31:25;95572.78;;;23.26;27.95
73671;BME280;61968;48.178;11.566;2023-07-20T01:33:54;95570.72;;;23.31;27.80
73671;BME280;61968;48.178;11.566;2023-07-20T01:36:22;95573.53;;;23.18;27.80
73671;BME280;61968;48.178;11.566;2023-07-20T01:38:50;95569.91;;;23.22;27.93
73671;BME280;61968;48.178;11.566;2023-07-20T01:41:17;95566.38;;;23.04;27.37
73671;BME280;61968;48.178;11.566;2023-07-20T01:43:44;95578.81;;;22.74;27.87
73671;BME280;61968;48.178;11.566;2023-07-20T01:46:11;95571.69;;;22.70;27.98
73671;BME280;61968;48.178;11.566;2023-07-20T01:48:39;95569.03;;;22.87;27.89
73671;BME280;61968;48.178;11.566;2023-07-20T01:51:05;95576.53;;;22.99;28.04
73671;BME280;61968;48.178;11.566;2023-07-20T01:53:32;95578.28;;;23.12;28.00
73671;BME280;61968;48.178;11.566;2023-07-20T01:55:58;95573.81;;;23.07;28.09
73671;BME280;61968;48.178;11.566;2023-07-20T01:58:25;95573.19;;;23.10;27.47
73671;BME280;61968;48.178;11.566;2023-07-20T02:00:51;95577.16;;;23.04;27.97
73671;BME280;61968;48.178;11.566;2023-07-20T02:03:18;95578.13;;;23.08;27.73
73671;BME280;61968;48.178;11.566;2023-07-20T02:05:48;95570.50;;;23.10;27.83
73671;BME280;61968;48.178;11.566;2023-07-20T02:08:15;95577.16;;;23.04;27.28
73671;BME280;61968;48.178;11.566;2023-07-20T02:10:45;95573.63;;;22.86;27.63
73671;BME280;61968;48.178;11.566;2023-07-20T02:13:12;95579.09;;;22.64;28.31
73671;BME280;61968;48.178;11.566;2023-07-20T02:15:38;95589.34;;;22.84;28.06
73671;BME280;61968;48.178;11.566;2023-07-20T02:18:05;95583.78;;;22.89;27.90
73671;BME280;61968;48.178;11.566;2023-07-20T02:20:32;95578.69;;;22.79;28.60
73671;BME280;61968;48.178;11.566;2023-07-20T02:23:00;95582.53;;;22.87;28.09
73671;BME280;61968;48.178;11.566;2023-07-20T02:25:26;95578.56;;;22.84;28.46
73671;BME280;61968;48.178;11.566;2023-07-20T02:27:53;95587.44;;;22.85;28.68
73671;BME280;61968;48.178;11.566;2023-07-20T02:30:19;95585.84;;;22.84;28.38
73671;BME280;61968;48.178;11.566;2023-07-20T02:32:46;95590.31;;;22.97;28.54
73671;BME280;61968;48.178;11.566;2023-07-20T02:35:14;95580.34;;;23.06;28.09
73671;BME280;61968;48.178;11.566;2023-07-20T02:37:40;95587.31;;;22.99;28.16
73671;BME280;61968;48.178;11.566;2023-07-20T02:40:09;95587.63;;;23.06;28.04
73671;BME280;61968;48.178;11.566;2023-07-20T02:42:36;95580.66;;;23.13;28.45
73671;BME280;61968;48.178;11.566;2023-07-20T02:45:03;95590.50;;;23.18;27.88
73671;BME280;61968;48.178;11.566;2023-07-20T02:47:30;95588.59;;;23.19;27.92
73671;BME280;61968;48.178;11.566;2023-07-20T02:49:57;95580.81;;;23.00;27.67
73671;BME280;61968;48.178;11.566;2023-07-20T02:52:23;95588.88;;;22.91;28.08
73671;BME280;61968;48.178;11.566;2023-07-20T02:54:50;95593.78;;;22.58;28.73
73671;BME280;61968;48.178;11.566;2023-07-20T02:57:18;95606.66;;;22.61;28.92
73671;BME280;61968;48.178;11.566;2023-07-20T02:59:44;95605.88;;;22.29;28.76
73671;BME280;61968;48.178;11.566;2023-07-20T03:02:11;95604.97;;;22.42;28.87
73671;BME280;61968;48.178;11.566;2023-07-20T03:04:37;95597.59;;;22.57;28.93
73671;BME280;61968;48.178;11.566;2023-07-20T03:07:04;95603.84;;;22.66;28.55
73671;BME280;61968;48.178;11.566;2023-07-20T03:09:32;95606.97;;;22.59;28.57
73671;BME280;61968;48.178;11.566;2023-07-20T03:11:58;95602.88;;;22.62;27.93
73671;BME280;61968;48.178;11.566;2023-07-20T03:14:26;95604.47;;;22.63;28.42
73671;BME280;61968;48.178;11.566;2023-07-20T03:16:53;95604.28;;;22.59;28.52
73671;BME280;61968;48.178;11.566;2023-07-20T03:19:19;95604.56;;;22.58;28.02
73671;BME280;61968;48.178;11.566;2023-07-20T03:21:46;95616.06;;;22.41;28.54
73671;BME280;61968;48.178;11.566;2023-07-20T03:24:12;95615.69;;;22.56;28.34
73671;BME280;61968;48.178;11.566;2023-07-20T03:26:39;95622.22;;;22.64;28.26
73671;BME280;61968;48.178;11.566;2023-07-20T03:29:05;95628.44;;;22.73;27.88
73671;BME280;61968;48.178;11.566;2023-07-20T03:31:33;95640.19;;;22.69;27.00
73671;BME280;61968;48.178;11.566;2023-07-20T03:33:59;95637.78;;;22.67;28.29
73671;BME280;61968;48.178;11.566;2023-07-20T03:36:26;95619.25;;;22.65;27.05
73671;BME280;61968;48.178;11.566;2023-07-20T03:38:52;95624.91;;;22.64;27.85
73671;BME280;61968;48.178;11.566;2023-07-20T03:41:19;95629.53;;;22.63;28.20
73671;BME280;61968;48.178;11.566;2023-07-20T03:43:47;95637.81;;;22.53;28.00
73671;BME280;61968;48.178;11.566;2023-07-20T03:46:14;95638.72;;;22.62;27.59
73671;BME280;61968;48.178;11.566;2023-07-20T03:48:41;95630.50;;;22.45;28.51
73671;BME280;61968;48.178;11.566;2023-07-20T03:51:08;95641.75;;;22.47;28.89
73671;BME280;61968;48.178;11.566;2023-07-20T03:53:34;95638.84;;;22.35;29.02
73671;BME280;61968;48.178;11.566;2023-07-20T03:56:01;95637.88;;;22.31;29.29
73671;BME280;61968;48.178;11.566;2023-07-20T03:58:27;95645.59;;;22.24;29.73
73671;BME280;61968;48.178;11.566;2023-07-20T04:00:55;95641.06;;;22.10;29.80
73671;BME280;61968;48.178;11.566;2023-07-20T04:03:21;95642.53;;;22.16;29.98
73671;BME280;61968;48.178;11.566;2023-07-20T04:05:53;95648.00;;;22.03;30.22
73671;BME280;61968;48.178;11.566;2023-07-20T04:08:19;95652.78;;;21.92;30.60
73671;BME280;61968;48.178;11.566;2023-07-20T04:10:46;95659.47;;;21.94;30.79
73671;BME280;61968;48.178;11.566;2023-07-20T04:13:12;95649.03;;;21.79;31.03
73671;BME280;61968;48.178;11.566;2023-07-20T04:15:39;95650.09;;;21.92;30.77
73671;BME280;61968;48.178;11.566;2023-07-20T04:18:05;95647.88;;;21.71;31.10
73671;BME280;61968;48.178;11.566;2023-07-20T04:20:32;95639.75;;;21.63;31.41
73671;BME280;61968;48.178;11.566;2023-07-20T04:23:00;95647.56;;;21.73;31.67
73671;BME280;61968;48.178;11.566;2023-07-20T04:25:26;95651.38;;;21.72;31.13
73671;BME280;61968;48.178;11.566;2023-07-20T04:27:53;95643.16;;;21.77;31.35
73671;BME280;61968;48.178;11.566;2023-07-20T04:30:21;95648.97;;;21.70;31.42
73671;BME280;61968;48.178;11.566;2023-07-20T04:32:48;95654.34;;;21.70;31.31
73671;BME280;61968;48.178;11.566;2023-07-20T04:35:17;95648.75;;;21.44;32.03
73671;BME280;61968;48.178;11.566;2023-07-20T04:37:45;95653.81;;;21.46;31.94
73671;BME280;61968;48.178;11.566;2023-07-20T04:40:15;95652.41;;;21.35;32.54
73671;BME280;61968;48.178;11.566;2023-07-20T04:42:42;95657.91;;;21.43;32.35
73671;BME280;61968;48.178;11.566;2023-07-20T04:45:09;95655.41;;;21.47;32.63
73671;BME280;61968;48.178;11.566;2023-07-20T04:47:35;95656.69;;;21.49;32.50
73671;BME280;61968;48.178;11.566;2023-07-20T04:50:02;95661.56;;;21.61;31.93
73671;BME280;61968;48.178;11.566;2023-07-20T04:52:29;95666.22;;;21.69;32.42
73671;BME280;61968;48.178;11.566;2023-07-20T04:54:55;95668.59;;;21.71;32.03
73671;BME280;61968;48.178;11.566;2023-07-20T04:57:24;95668.31;;;21.72;32.28
73671;BME280;61968;48.178;11.566;2023-07-20T04:59:51;95674.06;;;21.80;31.94
73671;BME280;61968;48.178;11.566;2023-07-20T05:02:17;95672.47;;;21.79;32.06
73671;BME280;61968;48.178;11.566;2023-07-20T05:04:44;95674.84;;;21.80;32.12
73671;BME280;61968;48.178;11.566;2023-07-20T05:07:10;95672.41;;;21.70;32.37
73671;BME280;61968;48.178;11.566;2023-07-20T05:09:37;95673.09;;;21.62;32.35
73671;BME280;61968;48.178;11.566;2023-07-20T05:12:04;95667.31;;;21.68;31.98
73671;BME280;61968;48.178;11.566;2023-07-20T05:14:32;95663.09;;;21.76;31.89
73671;BME280;61968;48.178;11.566;2023-07-20T05:16:59;95677.25;;;21.82;31.87
73671;BME280;61968;48.178;11.566;2023-07-20T05:19:25;95674.06;;;21.80;31.86
73671;BME280;61968;48.178;11.566;2023-07-20T05:21:52;95671.28;;;21.71;31.99
73671;BME280;61968;48.178;11.566;2023-07-20T05:24:18;95675.50;;;21.63;31.95
73671;BME280;61968;48.178;11.566;2023-07-20T05:26:45;95675.06;;;21.84;31.78
73671;BME280;61968;48.178;11.566;2023-07-20T05:29:11;95670.66;;;21.88;31.31
73671;BME280;61968;48.178;11.566;2023-07-20T05:31:39;95669.88;;;21.73;30.44
73671;BME280;61968;48.178;11.566;2023-07-20T05:34:05;95671.28;;;21.71;30.21
73671;BME280;61968;48.178;11.566;2023-07-20T05:36:32;95674.47;;;21.73;30.49
73671;BME280;61968;48.178;11.566;2023-07-20T05:38:58;95666.91;;;21.75;29.65
73671;BME280;61968;48.178;11.566;2023-07-20T05:41:25;95674.13;;;21.66;30.06
73671;BME280;61968;48.178;11.566;2023-07-20T05:43:51;95677.84;;;21.15;27.27
73671;BME280;61968;48.178;11.566;2023-07-20T05:46:18;95684.13;;;19.79;29.45
73671;BME280;61968;48.178;11.566;2023-07-20T05:48:46;95687.13;;;19.54;29.67
73671;BME280;61968;48.178;11.566;2023-07-20T05:51:12;95690.34;;;19.56;29.46
73671;BME280;61968;48.178;11.566;2023-07-20T05:53:39;95698.13;;;19.76;29.28
73671;BME280;61968;48.178;11.566;2023-07-20T05:56:05;95689.41;;;19.65;28.64
73671;BME280;61968;48.178;11.566;2023-07-20T05:58:35;95697.16;;;19.67;29.02
73671;BME280;61968;48.178;11.566;2023-07-20T06:01:01;95691.16;;;19.75;29.26
73671;BME280;61968;48.178;11.566;2023-07-20T06:03:28;95685.69;;;19.80;29.34
73671;BME280;61968;48.178;11.566;2023-07-20T06:05:59;95699.47;;;19.92;28.71
73671;BME280;61968;48.178;11.566;2023-07-20T06:08:26;95697.75;;;19.83;29.09
73671;BME280;61968;48.178;11.566;2023-07-20T06:10:53;95691.78;;;20.05;28.84
73671;BME280;61968;48.178;11.566;2023-07-20T06:13:20;95697.00;;;19.77;28.88
73671;BME280;61968;48.178;11.566;2023-07-20T06:15:46;95701.69;;;19.90;29.06
73671;BME280;61968;48.178;11.566;2023-07-20T06:18:13;95698.47;;;19.88;29.12
73671;BME280;61968;48.178;11.566;2023-07-20T06:20:39;95700.19;;;19.98;28.93
73671;BME280;61968;48.178;11.566;2023-07-20T06:23:07;95700.16;;;19.84;29.34
73671;BME280;61968;48.178;11.566;2023-07-20T06:25:33;95691.59;;;19.82;29.21
73671;BME280;61968;48.178;11.566;2023-07-20T06:28:00;95696.75;;;19.60;29.69
73671;BME280;61968;48.178;11.566;2023-07-20T06:30:26;95699.63;;;19.82;29.23
73671;BME280;61968;48.178;11.566;2023-07-20T06:32:53;95701.72;;;20.04;29.07
73671;BME280;61968;48.178;11.566;2023-07-20T06:35:19;95700.34;;;20.07;29.18
73671;BME280;61968;48.178;11.566;2023-07-20T06:37:46;95689.97;;;20.00;28.92
73671;BME280;61968;48.178;11.566;2023-07-20T06:40:14;95688.44;;;20.13;28.86
73671;BME280;61968;48.178;11.566;2023-07-20T06:42:40;95688.41;;;20.18;28.79
73671;BME280;61968;48.178;11.566;2023-07-20T06:45:07;95686.06;;;20.30;28.83
73671;BME280;61968;48.178;11.566;2023-07-20T06:47:34;95694.19;;;20.06;28.84
73671;BME280;61968;48.178;11.566;2023-07-20T06:50:00;95683.63;;;20.15;29.15
73671;BME280;61968;48.178;11.566;2023-07-20T06:52:27;95690.31;;;20.31;29.11
73671;BME280;61968;48.178;11.566;2023-07-20T06:54:53;95685.63;;;20.04;29.20
73671;BME280;61968;48.178;11.566;2023-07-20T06:57:21;95696.81;;;19.73;29.69
73671;BME280;61968;48.178;11.566;2023-07-20T06:59:48;95697.53;;;19.98;29.80
73671;BME280;61968;48.178;11.566;2023-07-20T07:02:14;95699.28;;;19.70;29.53
73671;BME280;61968;48.178;11.566;2023-07-20T07:04:41;95692.28;;;19.50;29.81
73671;BME280;61968;48.178;11.566;2023-07-20T07:07:08;95693.81;;;19.56;29.74
73671;BME280;61968;48.178;11.566;2023-07-20T07:09:35;95697.16;;;19.67;29.39
73671;BME280;61968;48.178;11.566;2023-07-20T07:12:01;95692.63;;;19.43;30.18
73671;BME280;61968;48.178;11.566;2023-07-20T07:14:29;95692.44;;;19.59;29.80
73671;BME280;61968;48.178;11.566;2023-07-20T07:16:56;95687.81;;;19.64;29.47
73671;BME280;61968;48.178;11.566;2023-07-20T07:19:22;95683.31;;;19.79;29.13
73671;BME280;61968;48.178;11.566;2023-07-20T07:21:48;95692.34;;;20.02;28.78
73671;BME280;61968;48.178;11.566;2023-07-20T07:24:16;95687.69;;;19.93;28.85
73671;BME280;61968;48.178;11.566;2023-07-20T07:26:42;95689.31;;;19.89;29.09
73671;BME280;61968;48.178;11.566;2023-07-20T07:29:09;95684.63;;;20.00;28.92
73671;BME280;61968;48.178;11.566;2023-07-20T07:31:37;95689.97;;;20.00;28.74
73671;BME280;61968;48.178;11.566;2023-07-20T07:34:04;95685.63;;;20.23;28.28
73671;BME280;61968;48.178;11.566;2023-07-20T07:36:30;95691.34;;;20.16;28.66
73671;BME280;61968;48.178;11.566;2023-07-20T07:38:57;95703.84;;;19.88;28.85
73671;BME280;61968;48.178;11.566;2023-07-20T07:41:24;95700.59;;;19.72;28.10
73671;BME280;61968;48.178;11.566;2023-07-20T07:43:50;95705.28;;;19.81;28.46
73671;BME280;61968;48.178;11.566;2023-07-20T07:46:17;95703.25;;;19.72;28.69
73671;BME280;61968;48.178;11.566;2023-07-20T07:48:45;95699.13;;;19.61;28.42
73671;BME280;61968;48.178;11.566;2023-07-20T07:51:12;95700.44;;;19.64;28.82
73671;BME280;61968;48.178;11.566;2023-07-20T07:53:39;95699.94;;;20.00;28.24
73671;BME280;61968;48.178;11.566;2023-07-20T07:56:07;95698.09;;;19.95;27.67
73671;BME280;61968;48.178;11.566;2023-07-20T07:58:33;95698.09;;;19.95;27.62
73671;BME280;61968;48.178;11.566;2023-07-20T08:01:00;95699.19;;;20.13;27.16
73671;BME280;61968;48.178;11.566;2023-07-20T08:03:27;95695.56;;;20.04;27.52
73671;BME280;61968;48.178;11.566;2023-07-20T08:05:55;95689.69;;;20.21;26.84
73671;BME280;61968;48.178;11.566;2023-07-20T08:08:22;95700.28;;;20.12;26.84
73671;BME280;61968;48.178;11.566;2023-07-20T08:10:48;95700.94;;;20.04;27.08
73671;BME280;61968;48.178;11.566;2023-07-20T08:13:15;95702.16;;;19.55;27.46
73671;BME280;61968;48.178;11.566;2023-07-20T08:15:49;95703.00;;;19.50;28.06
73671;BME280;61968;48.178;11.566;2023-07-20T08:18:16;95699.56;;;19.87;27.63
73671;BME280;61968;48.178;11.566;2023-07-20T08:20:43;95704.25;;;19.95;27.23
73671;BME280;61968;48.178;11.566;2023-07-20T08:23:11;95702.22;;;20.06;27.54
73671;BME280;61968;48.178;11.566;2023-07-20T08:25:38;95702.22;;;20.25;27.18
73671;BME280;61968;48.178;11.566;2023-07-20T08:28:09;95708.13;;;19.70;27.55
73671;BME280;61968;48.178;11.566;2023-07-20T08:30:40;95702.47;;;19.91;27.91
73671;BME280;61968;48.178;11.566;2023-07-20T08:33:06;95701.31;;;19.97;27.61
73671;BME280;61968;48.178;11.566;2023-07-20T08:35:33;95709.78;;;20.23;27.02
73671;BME280;61968;48.178;11.566;2023-07-20T08:38:00;95708.69;;;20.05;27.22
73671;BME280;61968;48.178;11.566;2023-07-20T08:40:28;95710.69;;;20.13;26.77
73671;BME280;61968;48.178;11.566;2023-07-20T08:42:56;95709.41;;;20.11;26.89
73671;BME280;61968;48.178;11.566;2023-07-20T08:45:26;95715.06;;;20.09;26.45
73671;BME280;61968;48.178;11.566;2023-07-20T08:47:54;95701.66;;;20.28;27.27
73671;BME280;61968;48.178;11.566;2023-07-20T08:50:22;95699.09;;;20.37;26.71
73671;BME280;61968;48.178;11.566;2023-07-20T08:52:52;95702.75;;;20.60;26.78
73671;BME280;61968;48.178;11.566;2023-07-20T08:55:19;95707.34;;;20.73;26.88
73671;BME280;61968;48.178;11.566;2023-07-20T08:57:50;95709.66;;;20.80;26.36
73671;BME280;61968;48.178;11.566;2023-07-20T09:00:19;95694.84;;;20.82;26.29
73671;BME280;61968;48.178;11.566;2023-07-20T09:02:48;95700.84;;;20.74;26.01
73671;BME280;61968;48.178;11.566;2023-07-20T09:05:15;95695.22;;;20.90;26.11
73671;BME280;61968;48.178;11.566;2023-07-20T09:07:42;95684.47;;;20.90;26.09
73671;BME280;61968;48.178;11.566;2023-07-20T09:10:09;95687.88;;;20.95;26.43
73671;BME280;61968;48.178;11.566;2023-07-20T09:12:37;95692.84;;;20.88;26.23
73671;BME280;61968;48.178;11.566;2023-07-20T09:15:07;95682.16;;;20.69;26.91
73671;BME280;61968;48.178;11.566;2023-07-20T09:17:34;95678.09;;;20.72;25.89
73671;BME280;61968;48.178;11.566;2023-07-20T09:20:03;95687.81;;;20.54;25.74
73671;BME280;61968;48.178;11.566;2023-07-20T09:22:34;95692.75;;;20.47;25.34
73671;BME280;61968;48.178;11.566;2023-07-20T09:25:00;95679.88;;;20.76;25.80
73671;BME280;61968;48.178;11.566;2023-07-20T09:27:34;95680.72;;;20.91;25.31
73671;BME280;61968;48.178;11.566;2023-07-20T09:30:01;95684.41;;;20.48;25.93
73671;BME280;61968;48.178;11.566;2023-07-20T09:32:29;95666.03;;;20.69;25.79
73671;BME280;61968;48.178;11.566;2023-07-20T09:34:55;95670.88;;;21.00;25.50
73671;BME280;61968;48.178;11.566;2023-07-20T09:37:23;95679.97;;;20.06;25.42
73671;BME280;61968;48.178;11.566;2023-07-20T09:39:52;95684.53;;;19.86;26.16
73671;BME280;61968;48.178;11.566;2023-07-20T09:42:18;95683.25;;;20.03;26.09
73671;BME280;61968;48.178;11.566;2023-07-20T09:44:46;95679.44;;;20.55;25.97
73671;BME280;61968;48.178;11.566;2023-07-20T09:47:12;95675.34;;;20.91;25.69
73671;BME280;61968;48.178;11.566;2023-07-20T09:49:40;95682.75;;;20.66;25.79
73671;BME280;61968;48.178;11.566;2023-07-20T09:52:08;95682.72;;;20.52;25.89
73671;BME280;61968;48.178;11.566;2023-07-20T09:54:37;95688.59;;;20.54;25.65
73671;BME280;61968;48.178;11.566;2023-07-20T09:57:06;95676.84;;;20.97;25.47
73671;BME280;61968;48.178;11.566;2023-07-20T09:59:33;95673.88;;;20.66;25.90
73671;BME280;61968;48.178;11.566;2023-07-20T10:02:02;95660.41;;;20.84;25.63
73671;BME280;61968;48.178;11.566;2023-07-20T10:04:30;95668.16;;;21.14;25.69
73671;BME280;61968;48.178;11.566;2023-07-20T10:07:02;95664.78;;;21.22;25.46
73671;BME280;61968;48.178;11.566;2023-07-20T10:09:31;95665.59;;;20.81;26.12
73671;BME280;61968;48.178;11.566;2023-07-20T10:11:59;95668.28;;;20.95;26.13
73671;BME280;61968;48.178;11.566;2023-07-20T10:14:28;95667.88;;;21.15;26.05
73671;BME280;61968;48.178;11.566;2023-07-20T10:17:01;95665.16;;;21.29;26.11
73671;BME280;61968;48.178;11.566;2023-07-20T10:19:33;95672.44;;;21.28;25.71
73671;BME280;61968;48.178;11.566;2023-07-20T10:22:10;95667.03;;;20.73;26.43
73671;BME280;61968;48.178;11.566;2023-07-20T10:24:38;95663.81;;;20.90;26.51
73671;BME280;61968;48.178;11.566;2023-07-20T10:27:05;95666.72;;;20.61;26.64
73671;BME280;61968;48.178;11.566;2023-07-20T10:29:32;95671.75;;;20.81;28.15
73671;BME280;61968;48.178;11.566;2023-07-20T10:31:59;95668.38;;;21.45;27.80
73671;BME280;61968;48.178;11.566;2023-07-20T10:34:26;95660.44;;;21.62;27.38
73671;BME280;61968;48.178;11.566;2023-07-20T10:36:54;95664.09;;;21.80;27.75
73671;BME280;61968;48.178;11.566;2023-07-20T10:39:25;95662.81;;;22.00;25.84
73671;BME280;61968;48.178;11.566;2023-07-20T10:42:00;95660.22;;;22.09;26.57
73671;BME280;61968;48.178;11.566;2023-07-20T10:44:27;95654.16;;;22.26;27.25
73671;BME280;61968;48.178;11.566;2023-07-20T10:46:59;95657.78;;;22.21;25.71
73671;BME280;61968;48.178;11.566;2023-07-20T10:49:27;95658.06;;;21.97;26.74
73671;BME280;61968;48.178;11.566;2023-07-20T10:51:56;95650.38;;;22.04;26.71
73671;BME280;61968;48.178;11.566;2023-07-20T10:54:49;95650.66;;;22.25;26.73
73671;BME280;61968;48.178;11.566;2023-07-20T10:57:28;95660.25;;;21.95;26.42
73671;BME280;61968;48.178;11.566;2023-07-20T11:00:08;95641.91;;;21.97;26.65
73671;BME280;61968;48.178;11.566;2023-07-20T11:02:42;95653.81;;;22.18;25.94
73671;BME280;61968;48.178;11.566;2023-07-20T11:05:32;95652.91;;;22.23;26.73
73671;BME280;61968;48.178;11.566;2023-07-20T11:07:59;95648.47;;;22.27;26.48
73671;BME280;61968;48.178;11.566;2023-07-20T11:10:27;95649.63;;;21.90;26.57
73671;BME280;61968;48.178;11.566;2023-07-20T11:13:26;95640.94;;;22.15;26.65
73671;BME280;61968;48.178;11.566;2023-07-20T11:16:03;95639.13;;;22.02;25.84
73671;BME280;61968;48.178;11.566;2023-07-20T11:18:33;95628.75;;;21.95;26.08
73671;BME280;61968;48.178;11.566;2023-07-20T11:21:01;95628.31;;;21.80;25.74
73671;BME280;61968;48.178;11.566;2023-07-20T11:23:29;95640.88;;;21.84;26.43
73671;BME280;61968;48.178;11.566;2023-07-20T11:25:57;95631.19;;;21.83;26.39
73671;BME280;61968;48.178;11.566;2023-07-20T11:28:25;95638.25;;;21.93;25.92
73671;BME280;61968;48.178;11.566;2023-07-20T11:30:52;95631.56;;;21.90;26.13
73671;BME280;61968;48.178;11.566;2023-07-20T11:33:19;95624.56;;;22.03;25.80
73671;BME280;61968;48.178;11.566;2023-07-20T11:35:46;95621.50;;;22.18;25.64
73671;BME280;61968;48.178;11.566;2023-07-20T11:38:13;95630.72;;;22.26;25.35
73671;BME280;61968;48.178;11.566;2023-07-20T11:40:42;95622.41;;;22.14;25.60
73671;BME280;61968;48.178;11.566;2023-07-20T11:43:12;95627.22;;;21.81;26.70
73671;BME280;61968;48.178;11.566;2023-07-20T11:45:39;95619.16;;;21.81;26.37
73671;BME280;61968;48.178;11.566;2023-07-20T11:48:06;95616.72;;;22.15;25.93
73671;BME280;61968;48.178;11.566;2023-07-20T11:50:38;95620.59;;;22.32;25.80
73671;BME280;61968;48.178;11.566;2023-07-20T11:53:05;95619.97;;;22.35;25.60
73671;BME280;61968;48.178;11.566;2023-07-20T11:55:31;95602.47;;;22.46;25.80
73671;BME280;61968;48.178;11.566;2023-07-20T11:58:02;95608.69;;;22.24;25.63
73671;BME280;61968;48.178;11.566;2023-07-20T12:00:31;95607.13;;;22.32;25.92
73671;BME280;61968;48.178;11.566;2023-07-20T12:02:57;95612.97;;;22.56;24.96
73671;BME280;61968;48.178;11.566;2023-07-20T12:05:24;95597.81;;;22.38;25.01
73671;BME280;61968;48.178;11.566;2023-07-20T12:07:51;95588.81;;;22.42;25.56
73671;BME280;61968;48.178;11.566;2023-07-20T12:10:24;95588.72;;;22.25;25.76
73671;BME280;61968;48.178;11.566;2023-07-20T12:12:52;95589.28;;;22.13;25.74
73671;BME280;61968;48.178;11.566;2023-07-20T12:15:20;95593.59;;;22.14;26.08
73671;BME280;61968;48.178;11.566;2023-07-20T12:17:51;95587.81;;;21.62;25.69
73671;BME280;61968;48.178;11.566;2023-07-20T12:20:26;95583.78;;;21.96;26.25
73671;BME280;61968;48.178;11.566;2023-07-20T12:22:56;95579.56;;;22.26;25.44
73671;BME280;61968;48.178;11.566;2023-07-20T12:25:23;95581.03;;;22.41;25.81
73671;BME280;61968;48.178;11.566;2023-07-20T12:27:50;95576.84;;;22.57;25.91
73671;BME280;61968;48.178;11.566;2023-07-20T12:30:16;95579.69;;;22.61;25.45
73671;BME280;61968;48.178;11.566;2023-07-20T12:32:43;95572.56;;;22.56;25.52
73671;BME280;61968;48.178;11.566;2023-07-20T12:35:11;95568.66;;;22.71;25.36
73671;BME280;61968;48.178;11.566;2023-07-20T12:37:39;95567.13;;;22.79;24.83
73671;BME280;61968;48.178;11.566;2023-07-20T12:40:07;95567.25;;;22.74;25.53
73671;BME280;61968;48.178;11.566;2023-07-20T12:42:37;95566.16;;;22.43;25.71
73671;BME280;61968;48.178;11.566;2023-07-20T12:45:05;95570.47;;;22.44;25.65
73671;BME280;61968;48.178;11.566;2023-07-20T12:47:31;95558.31;;;22.25;26.16
73671;BME280;61968;48.178;11.566;2023-07-20T12:49:58;95556.56;;;22.20;26.14
73671;BME280;61968;48.178;11.566;2023-07-20T12:52:26;95557.78;;;22.45;25.25
73671;BME280;61968;48.178;11.566;2023-07-20T12:54:52;95551.38;;;22.63;25.57